Time;durP1;ratioP1;P1;durP2;ratioP2;P2;SDS_P1;SDS_P2;PMS_P1;PMS_P2;Temp;Humidity;BMP_temperature;BMP_pressure;BME280_temperature;BME280_humidity;BME280_pressure;Samples;Min_cycle;Max_cycle;Signal;HPM_P1;HPM_P2
2023/12/25 04:54:21;;;;;;;1.90;0.90;;;;;;;10.01;84.78;98306.44;108346;268;603437;-75
2023/12/25 04:56:57;;;;;;;2.60;1.00;;;;;;;9.79;85.39;98311.98;110073;251;154235;-74
2023/12/25 04:59:30;;;;;;;1.80;0.90;;;;;;;9.64;86.07;98315.09;110283;255;38808;-75
2023/12/25 05:02:04;;;;;;;1.40;0.80;;;;;;;9.51;86.77;98318.02;110437;248;153306;-76
2023/12/25 05:04:39;;;;;;;5.20;1.40;;;;;;;9.43;87.42;98318.21;110485;250;39472;-75
2023/12/25 05:07:13;;;;;;;4.70;1.10;;;;;;;9.37;88.06;98322.27;110300;249;163292;-76
2023/12/25 05:09:47;;;;;;;2.60;1.00;;;;;;;9.27;88.29;98319.95;110628;249;38231;-76
2023/12/25 05:12:20;;;;;;;2.10;0.90;;;;;;;9.18;88.84;98320.76;110786;249;38255;-78
2023/12/25 05:14:55;;;;;;;3.30;1.10;;;;;;;9.08;89.34;98330.23;110596;244;153591;-77
2023/12/25 05:17:28;;;;;;;2.50;0.70;;;;;;;9.03;89.88;98326.25;110856;247;38255;-73
2023/12/25 05:20:02;;;;;;;2.40;0.80;;;;;;;8.98;90.27;98324.28;110682;246;153451;-73
2023/12/25 05:22:36;;;;;;;1.50;0.80;;;;;;;8.96;90.71;98320.97;110895;247;39443;-74
2023/12/25 05:25:12;;;;;;;2.70;0.80;;;;;;;8.92;91.09;98318.58;110741;245;152882;-74
2023/12/25 05:27:46;;;;;;;2.40;0.80;;;;;;;8.89;91.27;98319.88;110856;246;38369;-74
2023/12/25 05:30:20;;;;;;;1.70;0.90;;;;;;;8.84;91.67;98321.20;110933;247;38666;-74
2023/12/25 05:32:54;;;;;;;2.00;1.00;;;;;;;8.79;92.36;98316.30;110640;247;153215;-74
2023/12/25 05:35:28;;;;;;;2.10;0.90;;;;;;;8.74;92.75;98313.11;110966;246;39751;-76
2023/12/25 05:38:02;;;;;;;2.90;0.90;;;;;;;8.70;93.11;98307.66;110732;244;153258;-74
2023/12/25 05:40:36;;;;;;;2.40;0.70;;;;;;;8.67;93.65;98310.46;110958;245;39509;-74
2023/12/25 05:43:11;;;;;;;3.50;0.90;;;;;;;8.65;93.56;98331.61;111110;242;153589;-77
2023/12/25 05:45:45;;;;;;;2.10;0.80;;;;;;;8.65;93.62;98335.42;111024;243;38662;-75
2023/12/25 05:48:19;;;;;;;1.60;0.80;;;;;;;8.65;93.70;98335.80;111091;243;38791;-76
2023/12/25 05:50:53;;;;;;;2.60;0.90;;;;;;;8.64;93.89;98327.33;110855;241;154825;-77
2023/12/25 05:53:27;;;;;;;2.30;0.80;;;;;;;8.63;94.03;98339.90;111071;243;38547;-77
2023/12/25 05:56:03;;;;;;;1.60;0.60;;;;;;;8.61;94.00;98341.94;110899;241;154737;-75
2023/12/25 05:58:37;;;;;;;1.50;0.80;;;;;;;8.58;93.97;98348.58;111064;243;38373;-74
2023/12/25 06:01:13;;;;;;;1.90;0.60;;;;;;;8.56;94.04;98350.77;110944;241;154800;-72
2023/12/25 06:03:47;;;;;;;1.90;0.60;;;;;;;8.56;94.22;98345.75;110978;243;38599;-73
2023/12/25 06:06:21;;;;;;;1.10;0.60;;;;;;;8.54;94.16;98352.09;110965;244;38536;-73
2023/12/25 06:08:55;;;;;;;2.00;0.90;;;;;;;8.55;94.51;98346.67;110826;242;152470;-73
2023/12/25 06:11:30;;;;;;;1.50;0.70;;;;;;;8.53;94.46;98343.48;110996;244;39857;-74
2023/12/25 06:14:04;;;;;;;1.70;0.50;;;;;;;8.52;94.66;98334.65;110829;242;153482;-74
2023/12/25 06:16:38;;;;;;;1.30;0.50;;;;;;;8.55;94.91;98343.21;110977;244;38709;-73
2023/12/25 06:19:12;;;;;;;1.40;0.60;;;;;;;8.57;95.28;98350.91;110854;242;153315;-73
2023/12/25 06:21:46;;;;;;;1.70;0.60;;;;;;;8.55;95.34;98360.39;110965;244;38502;-77
2023/12/25 06:24:19;;;;;;;1.20;0.70;;;;;;;8.57;95.45;98368.29;110863;244;175495;-77
2023/12/25 06:26:53;;;;;;;3.10;1.10;;;;;;;8.59;95.50;98367.66;110865;242;153480;-74
2023/12/25 06:29:27;;;;;;;1.90;0.80;;;;;;;8.59;95.58;98361.01;110982;244;38392;-74
2023/12/25 06:32:01;;;;;;;2.20;0.70;;;;;;;8.61;95.74;98368.04;110824;242;152395;-76
2023/12/25 06:34:34;;;;;;;2.90;1.00;;;;;;;8.63;95.86;98371.20;110932;244;38469;-76
2023/12/25 06:37:08;;;;;;;1.70;0.70;;;;;;;8.64;95.79;98377.03;110834;242;153542;-75
2023/12/25 06:39:42;;;;;;;3.00;1.00;;;;;;;8.65;95.72;98379.79;110941;244;38288;-75
2023/12/25 06:42:16;;;;;;;3.60;1.20;;;;;;;8.65;95.78;98384.48;110962;244;38470;-74
2023/12/25 06:44:50;;;;;;;4.80;1.00;;;;;;;8.64;95.76;98390.26;110922;243;153448;-78
2023/12/25 06:47:24;;;;;;;1.60;0.80;;;;;;;8.62;95.64;98396.96;111086;243;38272;-74
2023/12/25 06:49:58;;;;;;;2.60;1.00;;;;;;;8.60;95.51;98394.34;110912;242;154262;-74
2023/12/25 06:52:32;;;;;;;3.10;1.20;;;;;;;8.58;95.59;98397.77;111030;244;38309;-74
2023/12/25 06:55:09;;;;;;;3.90;1.10;;;;;;;8.54;95.36;98394.84;111153;240;153936;-74
2023/12/25 06:57:43;;;;;;;2.50;1.00;;;;;;;8.51;95.38;98397.64;111221;242;39673;-76
2023/12/25 07:00:18;;;;;;;2.00;1.00;;;;;;;8.51;95.50;98408.42;111279;242;38947;-76
2023/12/25 07:02:52;;;;;;;2.50;0.90;;;;;;;8.49;95.25;98408.73;111136;240;153563;-76
2023/12/25 07:05:26;;;;;;;2.30;0.90;;;;;;;8.48;95.33;98394.51;111269;242;38531;-77
2023/12/25 07:08:00;;;;;;;2.40;1.00;;;;;;;8.50;95.43;98386.78;111154;240;153185;-75
2023/12/25 07:10:34;;;;;;;1.90;0.80;;;;;;;8.50;95.26;98390.95;111238;242;38344;-77
2023/12/25 07:13:07;;;;;;;2.90;0.90;;;;;;;8.48;95.19;98391.38;111137;240;153723;-76
2023/12/25 07:15:41;;;;;;;2.70;1.10;;;;;;;8.48;95.09;98399.21;111205;242;38437;-75
2023/12/25 07:18:15;;;;;;;4.20;1.20;;;;;;;8.49;95.28;98395.69;111251;242;39428;-75
2023/12/25 07:20:49;;;;;;;4.50;1.60;;;;;;;8.51;95.42;98398.88;111095;240;153226;-76
2023/12/25 07:23:23;;;;;;;2.80;1.00;;;;;;;8.51;95.18;98397.14;111267;242;38544;-73
2023/12/25 07:25:58;;;;;;;2.60;0.90;;;;;;;8.50;95.03;98399.13;111138;240;153580;-75
2023/12/25 07:28:32;;;;;;;2.80;1.00;;;;;;;8.49;95.01;98408.53;111286;242;38552;-75
2023/12/25 07:31:07;;;;;;;4.00;1.10;;;;;;;8.49;94.91;98405.45;110952;240;152950;-75
2023/12/25 07:33:41;;;;;;;2.60;1.20;;;;;;;8.48;94.88;98404.80;111228;242;38856;-75
2023/12/25 07:36:15;;;;;;;2.90;1.20;;;;;;;8.46;94.88;98401.80;111257;242;38426;-76
2023/12/25 07:38:49;;;;;;;2.60;1.20;;;;;;;8.45;94.79;98404.23;110427;240;908268;-76
2023/12/25 07:41:25;;;;;;;4.30;1.70;;;;;;;8.45;94.73;98396.13;111313;242;38799;-74
2023/12/25 07:44:00;;;;;;;3.80;1.30;;;;;;;8.45;94.72;98402.35;111145;240;153128;-74
2023/12/25 07:46:34;;;;;;;3.10;1.20;;;;;;;8.45;94.72;98405.81;111279;242;38748;-78
2023/12/25 07:49:08;;;;;;;3.40;1.20;;;;;;;8.44;94.60;98408.50;111156;240;153413;-77
2023/12/25 07:51:42;;;;;;;3.70;1.20;;;;;;;8.43;94.48;98399.85;111031;242;38269;-75
2023/12/25 07:54:16;;;;;;;3.10;1.50;;;;;;;8.43;94.44;98405.09;111081;242;39337;-73
2023/12/25 22:10:08;;;;;;;12.10;3.50;;;;;;;6.20;68.01;99295.44;108331;267;604807;-73
2023/12/25 22:12:42;;;;;;;16.70;4.10;;;;;;;5.98;68.58;99304.21;111029;241;152480;-76
2023/12/25 22:15:16;;;;;;;11.00;3.00;;;;;;;5.84;69.09;99311.27;110970;244;38252;-75
2023/12/25 22:17:50;;;;;;;11.10;3.30;;;;;;;5.73;69.48;99325.87;110925;244;152910;-74
2023/12/25 22:20:24;;;;;;;14.70;3.00;;;;;;;5.61;69.81;99334.56;111049;244;38239;-75
2023/12/25 22:22:59;;;;;;;14.40;3.30;;;;;;;5.52;70.29;99342.52;110897;240;152738;-75
2023/12/25 22:25:33;;;;;;;11.30;3.00;;;;;;;5.45;70.71;99342.20;111254;242;38240;-75
2023/12/25 22:28:08;;;;;;;15.50;3.80;;;;;;;5.38;71.01;99341.23;111295;242;39927;-72
2023/12/25 22:30:42;;;;;;;12.40;3.70;;;;;;;5.31;71.38;99336.63;111126;242;153417;-71
2023/12/25 22:33:17;;;;;;;12.90;3.40;;;;;;;5.24;71.73;99328.57;111321;242;38229;-73
2023/12/25 22:35:54;;;;;;;10.70;3.00;;;;;;;5.18;72.15;99334.29;111191;240;153460;-73
2023/12/25 22:38:28;;;;;;;11.60;3.10;;;;;;;5.12;72.42;99343.98;111214;242;38681;-75
2023/12/25 22:41:03;;;;;;;11.20;3.10;;;;;;;5.06;72.70;99347.97;111133;240;153386;-75
2023/12/25 22:43:37;;;;;;;14.40;3.40;;;;;;;5.01;73.04;99349.36;111207;242;38557;-73
2023/12/25 22:46:11;;;;;;;14.40;3.40;;;;;;;4.94;73.44;99351.45;111209;242;38894;-75
2023/12/25 22:48:45;;;;;;;14.30;3.50;;;;;;;4.87;73.66;99347.02;110896;243;152491;-74
2023/12/25 22:51:19;;;;;;;14.10;4.50;;;;;;;4.80;74.01;99350.52;111228;242;38249;-74
2023/12/25 22:53:55;;;;;;;12.70;3.40;;;;;;;4.76;74.37;99349.09;111140;239;153431;-74
2023/12/25 22:56:28;;;;;;;13.40;3.80;;;;;;;4.73;74.60;99353.68;111273;242;38252;-73
2023/12/25 22:59:02;;;;;;;12.40;3.90;;;;;;;4.71;74.87;99352.88;111133;242;153038;-73
2023/12/25 23:01:36;;;;;;;13.20;4.40;;;;;;;4.68;74.94;99352.80;111232;242;39179;-76
2023/12/25 23:04:10;;;;;;;12.80;3.80;;;;;;;4.63;75.00;99356.58;111278;242;38774;-75
2023/12/25 23:06:44;;;;;;;10.70;4.20;;;;;;;4.59;75.07;99358.94;111127;239;152614;-73
2023/12/25 23:09:18;;;;;;;10.50;3.10;;;;;;;4.54;75.22;99364.44;111277;241;38739;-72
2023/12/25 23:11:53;;;;;;;11.80;2.90;;;;;;;4.52;75.34;99370.54;111037;240;189030;-73
2023/12/25 23:14:28;;;;;;;10.90;3.20;;;;;;;4.51;75.46;99373.35;111206;242;38648;-73
2023/12/25 23:17:03;;;;;;;14.60;4.00;;;;;;;4.49;75.57;99384.61;111071;242;152571;-75
2023/12/25 23:19:37;;;;;;;13.70;3.20;;;;;;;4.47;75.61;99380.04;111303;242;38379;-76
2023/12/25 23:22:14;;;;;;;15.80;3.90;;;;;;;4.43;75.72;99377.20;111015;242;38448;-74
2023/12/25 23:24:49;;;;;;;16.80;4.50;;;;;;;4.37;75.84;99379.60;111149;240;152734;-74
2023/12/25 23:27:26;;;;;;;12.70;3.20;;;;;;;4.32;75.94;99393.58;111222;242;39452;-73
2023/12/25 23:30:00;;;;;;;9.90;2.80;;;;;;;4.26;76.11;99393.21;111027;241;154356;-73
2023/12/25 23:32:34;;;;;;;13.30;3.20;;;;;;;4.22;76.32;99387.10;111205;242;38275;-74
2023/12/25 23:35:11;;;;;;;12.50;3.90;;;;;;;4.21;76.54;99392.34;111115;240;153452;-74
2023/12/25 23:37:44;;;;;;;15.20;3.60;;;;;;;4.18;76.82;99383.59;111292;242;38263;-73
2023/12/25 23:40:20;;;;;;;12.80;3.40;;;;;;;4.16;76.88;99379.69;111231;242;38668;-73
2023/12/25 23:42:56;;;;;;;13.40;4.20;;;;;;;4.12;77.04;99377.04;111126;241;153737;-73
2023/12/25 23:45:30;;;;;;;16.30;3.20;;;;;;;4.06;77.13;99382.02;111220;242;38236;-73
2023/12/25 23:48:05;;;;;;;14.20;3.90;;;;;;;4.01;77.37;99385.09;111033;241;153449;-76
2023/12/25 23:50:39;;;;;;;10.40;3.30;;;;;;;3.97;77.56;99381.59;111170;242;38272;-76
2023/12/25 23:53:12;;;;;;;10.80;3.70;;;;;;;3.95;77.83;99384.41;111165;239;153211;-76
2023/12/25 23:55:46;;;;;;;17.40;4.40;;;;;;;3.95;78.07;99384.73;111253;241;39957;-75
2023/12/25 23:58:20;;;;;;;14.40;3.70;;;;;;;3.93;78.20;99378.44;111303;242;39172;-75
